Time;durP1;ratioP1;P1;durP2;ratioP2;P2;SDS_P1;SDS_P2;PMS_P1;PMS_P2;Temp;Humidity;BMP_temperature;BMP_pressure;BME280_temperature;BME280_humidity;BME280_pressure;Samples;Min_cycle;Max_cycle;Signal;HPM_P1;HPM_P2
2022/06/05 00:02:40;;;;;;;13.98;6.70;;;;;;;19.55;55.05;101486.66;5075353;28;20031;-85
2022/06/05 00:05:18;;;;;;;10.75;6.63;;;;;;;19.53;55.10;101486.91;5073744;28;20079;-85
2022/06/05 00:07:53;;;;;;;10.48;6.93;;;;;;;19.52;55.12;101493.50;5074033;28;20115;-85
2022/06/05 00:10:28;;;;;;;10.30;6.37;;;;;;;19.48;54.93;101480.53;5074113;28;20040;-85
2022/06/05 00:13:09;;;;;;;9.55;6.20;;;;;;;19.48;55.23;101470.34;5073933;28;20033;-85
2022/06/05 00:15:34;;;;;;;8.70;6.22;;;;;;;19.38;55.84;101462.81;5073532;28;20029;-85
2022/06/05 00:18:00;;;;;;;10.37;6.33;;;;;;;19.34;55.54;101467.19;5107988;28;20039;-85
2022/06/05 00:20:26;;;;;;;8.80;6.18;;;;;;;19.29;55.78;101464.38;5073653;28;20068;-84
2022/06/05 00:22:54;;;;;;;7.03;5.70;;;;;;;19.26;56.14;101464.88;5073711;28;20055;-85
2022/06/05 00:25:24;;;;;;;7.72;5.90;;;;;;;19.24;55.97;101467.09;5056721;28;20116;-85
2022/06/05 00:28:07;;;;;;;9.05;6.32;;;;;;;19.20;55.91;101465.94;5073991;28;20064;-85
2022/06/05 00:30:48;;;;;;;6.97;5.75;;;;;;;19.18;55.57;101454.38;5075186;28;20099;-84
2022/06/05 00:33:24;;;;;;;10.88;6.20;;;;;;;19.16;56.07;101453.78;5073441;28;20063;-85
2022/06/05 00:36:02;;;;;;;9.73;6.13;;;;;;;19.14;55.71;101444.97;5073507;28;20039;-85
2022/06/05 00:38:44;;;;;;;8.60;5.72;;;;;;;19.11;55.76;101446.31;5073275;28;20027;-85
2022/06/05 00:41:28;;;;;;;6.43;5.60;;;;;;;19.14;56.16;101447.72;5073510;28;20066;-85
2022/06/05 00:43:58;;;;;;;6.50;5.75;;;;;;;19.07;56.74;101437.75;5074597;28;20063;-85
2022/06/05 00:46:26;;;;;;;7.55;5.70;;;;;;;19.10;56.34;101444.63;5072062;28;20083;-85
2022/06/05 00:48:52;;;;;;;10.13;6.20;;;;;;;19.06;56.51;101435.22;5073934;28;20029;-85
2022/06/05 00:51:18;;;;;;;8.60;5.65;;;;;;;19.06;56.24;101437.97;5072800;28;20387;-85
2022/06/05 00:53:47;;;;;;;6.67;5.30;;;;;;;19.04;56.39;101442.91;5056621;28;20436;-84
2022/06/05 00:56:16;;;;;;;10.10;5.65;;;;;;;19.05;56.38;101437.16;5089303;28;20056;-85
2022/06/05 00:58:42;;;;;;;7.82;5.13;;;;;;;19.03;56.39;101433.00;5072724;28;20031;-85
2022/06/05 01:01:08;;;;;;;6.57;5.30;;;;;;;19.04;55.85;101435.50;5072823;28;20384;-85
2022/06/05 01:03:33;;;;;;;6.97;5.40;;;;;;;19.02;56.61;101439.59;5056270;28;20033;-85
2022/06/05 01:05:59;;;;;;;5.87;5.27;;;;;;;19.04;56.25;101438.25;5072881;28;20028;-85
2022/06/05 01:08:25;;;;;;;6.97;5.40;;;;;;;19.07;56.58;101446.00;5055962;28;20071;-85
2022/06/05 01:11:12;;;;;;;8.73;5.90;;;;;;;19.09;56.08;101443.00;5072840;28;20033;-85
2022/06/05 01:13:41;;;;;;;6.93;5.50;;;;;;;19.14;56.22;101445.78;5074222;28;20071;-85
2022/06/05 01:16:09;;;;;;;8.00;5.75;;;;;;;19.15;56.09;101446.59;5072950;28;20033;-85
2022/06/05 01:19:00;;;;;;;9.15;5.60;;;;;;;19.14;55.73;101454.03;5072633;28;20024;-85
2022/06/05 01:21:32;;;;;;;9.50;6.22;;;;;;;19.08;55.89;101513.66;5072666;28;20028;-84
2022/06/05 01:24:38;;;;;;;10.40;5.87;;;;;;;18.93;56.26;101521.72;5072536;28;20089;-85
2022/06/05 01:27:14;;;;;;;8.20;5.78;;;;;;;18.84;57.21;101474.56;5073830;28;20029;-85
2022/06/05 01:29:50;;;;;;;9.88;6.03;;;;;;;18.83;57.70;101516.06;5073898;28;20033;-85
2022/06/05 01:32:28;;;;;;;11.07;5.90;;;;;;;18.78;58.33;101516.81;5073830;28;20133;-85
2022/06/05 01:35:00;;;;;;;6.63;5.85;;;;;;;18.67;60.99;101460.03;5072811;28;20035;-85
2022/06/05 01:37:58;;;;;;;9.40;6.17;;;;;;;18.53;59.77;101432.13;5072742;28;20036;-85
2022/06/05 01:40:45;;;;;;;7.97;5.80;;;;;;;18.48;60.25;101478.75;5072731;28;20036;-85
2022/06/05 01:43:15;;;;;;;8.73;6.22;;;;;;;18.50;61.21;101488.41;5072209;28;20024;-85
2022/06/05 01:46:09;;;;;;;6.90;6.20;;;;;;;18.58;60.20;101468.72;5073534;28;20016;-85
2022/06/05 01:48:44;;;;;;;6.72;5.82;;;;;;;18.65;60.48;101464.97;5072313;28;20037;-85
2022/06/05 01:51:26;;;;;;;7.03;5.97;;;;;;;18.74;59.73;101444.19;5073427;28;20028;-85
2022/06/05 01:53:54;;;;;;;6.38;5.65;;;;;;;18.77;60.04;101443.69;5072033;28;20028;-85
2022/06/05 01:56:26;;;;;;;7.90;5.22;;;;;;;18.83;60.45;101450.06;5071649;28;20055;-85
2022/06/05 01:58:59;;;;;;;7.32;5.82;;;;;;;18.89;60.10;101429.84;5071945;28;20457;-85
2022/06/05 02:01:33;;;;;;;7.45;5.80;;;;;;;18.91;59.53;101422.16;5072530;28;20060;-85
2022/06/05 02:04:07;;;;;;;5.87;5.07;;;;;;;18.91;59.38;101422.16;5071861;28;20094;-85
2022/06/05 02:06:39;;;;;;;8.02;5.72;;;;;;;18.90;59.11;101410.31;5073491;28;20028;-85
2022/06/05 02:09:15;;;;;;;8.23;5.57;;;;;;;18.96;59.55;101413.97;5072045;28;20035;-85
2022/06/05 02:11:46;;;;;;;6.85;5.47;;;;;;;18.96;58.98;101402.97;5073375;28;20032;-85
2022/06/05 02:14:15;;;;;;;6.80;6.03;;;;;;;18.97;59.82;101392.78;5071917;28;20029;-85
2022/06/05 02:16:42;;;;;;;7.50;6.47;;;;;;;18.93;60.45;101382.31;5071871;28;20063;-85
2022/06/05 02:19:12;;;;;;;8.57;6.07;;;;;;;18.90;60.58;101368.28;5073184;28;20047;-85
2022/06/05 02:21:38;;;;;;;8.27;6.10;;;;;;;18.83;60.35;101362.94;5071912;28;20036;-85
2022/06/05 02:24:08;;;;;;;8.75;6.10;;;;;;;18.79;60.21;101349.97;5073329;28;20021;-85
2022/06/05 02:26:34;;;;;;;7.30;6.50;;;;;;;18.72;59.57;101350.16;5087931;28;20392;-85
2022/06/05 02:29:20;;;;;;;8.30;6.53;;;;;;;18.68;58.86;101340.78;5071739;28;20111;-85
2022/06/05 02:31:52;;;;;;;8.57;6.13;;;;;;;18.62;59.85;101334.41;5071984;28;20052;-85
2022/06/05 02:34:41;;;;;;;8.68;6.75;;;;;;;18.59;59.91;101327.50;5073154;28;20021;-85
2022/06/05 02:37:32;;;;;;;9.55;6.90;;;;;;;18.47;61.75;101318.56;5072833;28;20035;-85
2022/06/05 02:40:35;;;;;;;9.50;7.03;;;;;;;18.43;61.09;101317.41;5072268;28;20115;-85
2022/06/05 02:43:15;;;;;;;9.90;7.40;;;;;;;18.28;61.99;101303.47;5071911;28;20385;-86
2022/06/05 02:45:55;;;;;;;10.40;7.03;;;;;;;18.17;64.20;101289.66;5071582;28;20017;-85
2022/06/05 02:48:28;;;;;;;10.40;7.05;;;;;;;18.05;65.23;101284.28;5072949;28;20032;-86
2022/06/05 02:51:01;;;;;;;10.85;7.03;;;;;;;17.96;64.76;101271.25;5071705;28;20121;-86
2022/06/05 02:53:27;;;;;;;9.00;7.20;;;;;;;17.88;65.41;101269.75;5071747;28;20041;-85
2022/06/05 02:55:54;;;;;;;8.38;6.45;;;;;;;17.71;65.46;101267.03;5071040;28;20028;-85
2022/06/05 02:58:20;;;;;;;9.80;6.47;;;;;;;17.62;65.00;101266.63;5105379;28;20028;-86
2022/06/05 03:03:27;;;;;;;9.05;6.90;;;;;;;17.57;65.87;101257.50;5071670;28;20443;-85
2022/06/05 03:03:31;;;;;;;8.00;7.20;;;;;;;17.53;66.75;101266.22;5072850;28;20124;-86
2022/06/05 03:06:00;;;;;;;9.37;6.77;;;;;;;17.43;65.61;101265.25;5088186;28;20135;-86
2022/06/05 03:08:25;;;;;;;8.40;6.90;;;;;;;17.40;65.09;101266.59;5071399;28;20025;-86
2022/06/05 03:10:51;;;;;;;8.17;6.57;;;;;;;17.35;65.69;101269.25;5074742;28;20047;-86
2022/06/05 03:13:17;;;;;;;9.23;6.73;;;;;;;17.33;65.31;101260.44;5109094;28;20027;-85
2022/06/05 03:15:43;;;;;;;10.48;6.47;;;;;;;17.29;65.48;101256.56;5075118;28;20123;-85
2022/06/05 03:18:12;;;;;;;9.65;6.88;;;;;;;17.28;65.16;101261.19;5091868;28;20029;-85
2022/06/05 03:20:38;;;;;;;9.32;7.18;;;;;;;17.26;65.59;101265.25;5075992;28;20075;-85
2022/06/05 03:23:04;;;;;;;8.00;7.03;;;;;;;17.26;65.10;101276.22;5075872;28;20395;-85
2022/06/05 03:25:30;;;;;;;10.80;7.00;;;;;;;17.23;65.45;101280.31;5074493;28;20029;-85
2022/06/05 03:27:55;;;;;;;8.43;6.65;;;;;;;17.22;64.61;101283.31;5074940;28;20131;-85
2022/06/05 03:30:21;;;;;;;11.70;6.93;;;;;;;17.19;65.48;101281.91;5058532;28;20143;-85
2022/06/05 03:32:47;;;;;;;8.07;6.63;;;;;;;17.23;64.90;101293.19;5074608;28;20033;-85
2022/06/05 03:35:15;;;;;;;8.47;7.13;;;;;;;17.23;64.89;101293.19;5057922;28;20034;-85
2022/06/05 03:37:41;;;;;;;10.02;6.70;;;;;;;17.23;63.90;101285.81;5058296;28;20025;-85
2022/06/05 03:40:16;;;;;;;8.17;6.30;;;;;;;17.19;64.05;101292.88;5057968;28;20029;-85
2022/06/05 03:42:45;;;;;;;10.43;6.72;;;;;;;17.20;63.52;101289.06;5059557;28;20127;-85
2022/06/05 03:45:16;;;;;;;8.77;6.57;;;;;;;17.19;63.75;101290.13;5074458;28;20029;-85
2022/06/05 03:47:42;;;;;;;12.13;6.95;;;;;;;17.19;64.29;101281.91;5074236;28;20048;-85
2022/06/05 03:50:09;;;;;;;9.73;6.97;;;;;;;17.21;64.30;101289.88;5074395;28;20412;-85
2022/06/05 03:52:35;;;;;;;14.10;6.70;;;;;;;17.18;63.71;101286.56;5074389;28;20025;-85
2022/06/05 03:55:03;;;;;;;11.83;7.10;;;;;;;17.14;63.73;101281.78;5073811;28;20025;-85
2022/06/05 03:57:28;;;;;;;7.38;6.60;;;;;;;17.16;63.95;101291.44;5075269;28;20081;-85
2022/06/05 03:59:54;;;;;;;10.30;6.40;;;;;;;17.16;63.63;101290.63;5074233;28;20501;-85
2022/06/05 04:02:19;;;;;;;13.93;6.75;;;;;;;17.13;63.93;101286.47;5073895;28;20041;-85
2022/06/05 04:04:45;;;;;;;10.13;6.87;;;;;;;17.07;64.34;101287.47;5073923;28;20103;-85
2022/06/05 04:07:10;;;;;;;9.13;6.23;;;;;;;17.08;63.47;101288.28;5073928;28;20400;-84
2022/06/05 04:09:39;;;;;;;10.93;6.32;;;;;;;17.09;63.75;101290.78;5057412;28;20089;-85
2022/06/05 04:12:05;;;;;;;10.10;6.47;;;;;;;17.09;63.90;101284.47;5057827;28;20115;-85
2022/06/05 04:14:30;;;;;;;10.75;6.45;;;;;;;17.10;63.50;101280.66;5073960;28;20032;-85
2022/06/05 04:16:55;;;;;;;9.70;6.70;;;;;;;17.12;63.37;101278.50;5057109;28;20468;-85
2022/06/05 04:19:21;;;;;;;9.83;6.70;;;;;;;17.09;62.75;101271.59;5073565;28;20107;-85
2022/06/05 04:21:47;;;;;;;9.25;6.72;;;;;;;17.11;63.51;101271.34;5075081;28;20490;-85
2022/06/05 04:24:14;;;;;;;12.18;6.53;;;;;;;17.10;63.94;101266.94;5073858;28;20035;-85
2022/06/05 04:26:42;;;;;;;8.52;6.80;;;;;;;17.10;63.13;101270.50;5074278;28;20025;-85
2022/06/05 04:29:08;;;;;;;10.07;6.17;;;;;;;17.10;63.02;101261.47;5074881;28;20032;-85
2022/06/05 04:31:36;;;;;;;10.95;7.00;;;;;;;17.11;63.26;101268.59;5073508;28;20078;-85
2022/06/05 04:34:04;;;;;;;10.75;6.65;;;;;;;17.11;63.11;101274.06;5073413;28;20042;-85
2022/06/05 04:36:30;;;;;;;11.10;7.13;;;;;;;17.11;63.02;101260.38;5073563;28;20456;-85
2022/06/05 04:38:55;;;;;;;10.03;6.33;;;;;;;17.09;62.39;101268.84;5073324;28;20068;-85
2022/06/05 04:41:22;;;;;;;9.67;6.20;;;;;;;17.11;62.79;101263.97;5056567;28;20044;-85
2022/06/05 04:43:49;;;;;;;10.43;6.82;;;;;;;17.12;62.80;101260.13;5073421;28;20025;-85
2022/06/05 04:46:16;;;;;;;11.38;6.97;;;;;;;17.12;62.90;101251.06;5074442;28;20057;-85
2022/06/05 04:48:45;;;;;;;10.30;6.45;;;;;;;17.08;63.04;101258.13;5073275;28;20024;-85
2022/06/05 04:51:15;;;;;;;10.00;6.65;;;;;;;17.04;62.75;101259.69;5073511;28;20448;-85
2022/06/05 04:53:41;;;;;;;10.63;6.67;;;;;;;17.01;62.78;101258.31;5073198;28;20032;-85
2022/06/05 04:56:10;;;;;;;8.82;6.85;;;;;;;17.07;63.09;101268.28;5073724;28;20518;-85
2022/06/05 04:58:36;;;;;;;11.55;7.22;;;;;;;17.06;63.15;101254.81;5073065;28;20415;-85
2022/06/05 05:01:10;;;;;;;8.95;6.82;;;;;;;17.09;62.84;101262.53;5074115;28;20043;-85
2022/06/05 05:03:35;;;;;;;12.23;7.33;;;;;;;17.12;63.01;101262.03;5073089;28;20039;-85
2022/06/05 05:06:00;;;;;;;12.23;7.03;;;;;;;17.17;63.00;101262.97;5073223;28;20028;-85
2022/06/05 05:08:26;;;;;;;11.07;7.27;;;;;;;17.17;62.82;101268.44;5056297;28;20101;-85
2022/06/05 05:10:51;;;;;;;8.60;6.57;;;;;;;17.18;62.99;101270.09;5056266;28;20028;-85
2022/06/05 05:13:17;;;;;;;10.80;7.53;;;;;;;17.19;62.70;101270.94;5073888;28;20495;-85
2022/06/05 05:15:48;;;;;;;9.10;6.60;;;;;;;17.27;62.55;101264.19;5072611;28;20396;-85
2022/06/05 05:18:16;;;;;;;10.60;6.70;;;;;;;17.32;62.84;101267.03;5056242;28;20328;-85
2022/06/05 05:20:42;;;;;;;10.70;6.57;;;;;;;17.39;62.57;101272.31;5106850;28;20115;-83
2022/06/05 05:23:07;;;;;;;10.52;6.38;;;;;;;17.49;62.16;101267.84;5055934;28;20066;-84
2022/06/05 05:25:33;;;;;;;8.83;6.20;;;;;;;17.56;62.27;101273.13;5071835;28;20170;-84
2022/06/05 05:27:59;;;;;;;12.93;6.35;;;;;;;17.63;62.18;101271.06;5073713;28;20103;-84
2022/06/05 05:30:27;;;;;;;11.80;6.80;;;;;;;17.70;61.41;101274.44;5055685;28;20044;-84
2022/06/05 05:32:52;;;;;;;11.15;6.03;;;;;;;17.76;61.70;101266.28;5072128;28;20035;-85
2022/06/05 05:35:22;;;;;;;9.37;6.33;;;;;;;17.83;61.06;101269.66;5072375;28;20422;-84
2022/06/05 05:37:47;;;;;;;8.63;6.10;;;;;;;17.87;61.13;101274.38;5089389;28;20028;-84
2022/06/05 05:42:57;;;;;;;9.60;5.82;;;;;;;17.95;60.85;101273.19;5073921;28;20081;-85
2022/06/05 05:45:23;;;;;;;8.30;6.60;;;;;;;17.97;60.56;101265.50;5055821;28;20135;-85
2022/06/05 05:47:49;;;;;;;9.70;6.43;;;;;;;18.01;60.57;101266.66;5072238;28;20044;-84
2022/06/05 05:50:15;;;;;;;7.68;6.43;;;;;;;18.05;61.03;101259.56;5055529;28;20044;-84
2022/06/05 05:52:42;;;;;;;9.25;6.10;;;;;;;18.09;60.61;101262.63;5072237;28;20449;-83
2022/06/05 05:55:18;;;;;;;11.48;6.43;;;;;;;18.15;60.70;101258.84;5071670;28;20036;-83
2022/06/05 05:57:49;;;;;;;7.23;6.20;;;;;;;18.23;60.21;101258.41;5072601;28;20024;-83
2022/06/05 06:00:17;;;;;;;8.90;6.18;;;;;;;18.31;60.33;101248.88;5073417;28;20025;-83
2022/06/05 06:02:43;;;;;;;8.07;6.35;;;;;;;18.37;59.90;101247.84;5073329;28;20043;-83
2022/06/05 06:05:14;;;;;;;11.10;6.47;;;;;;;18.40;59.85;101241.84;5072126;28;20392;-82
2022/06/05 06:07:39;;;;;;;10.40;6.38;;;;;;;18.50;59.59;101234.78;5072021;28;20035;-84
2022/06/05 06:10:07;;;;;;;9.60;6.47;;;;;;;18.64;59.19;101238.78;5055663;28;20036;-84
2022/06/05 06:12:33;;;;;;;8.33;6.10;;;;;;;18.73;58.83;101231.75;5055775;28;20024;-82
2022/06/05 06:14:58;;;;;;;9.05;6.53;;;;;;;18.87;58.64;101218.41;5071924;28;20484;-84
2022/06/05 06:17:23;;;;;;;10.03;6.57;;;;;;;18.98;58.03;101215.75;5088289;28;20449;-84
2022/06/05 06:19:49;;;;;;;11.97;6.77;;;;;;;18.97;58.05;101216.81;5073326;28;20028;-83
2022/06/05 06:22:14;;;;;;;9.10;6.30;;;;;;;19.09;58.30;101210.06;5073248;28;20026;-84
2022/06/05 06:24:40;;;;;;;8.87;6.20;;;;;;;19.19;58.38;101213.97;5055724;28;20293;-83
2022/06/05 06:27:05;;;;;;;8.00;6.43;;;;;;;19.35;57.64;101206.66;5071512;28;20480;-83
2022/06/05 06:29:31;;;;;;;8.70;6.23;;;;;;;19.46;57.07;101202.88;5071889;28;20037;-83
2022/06/05 06:31:56;;;;;;;11.53;6.53;;;;;;;19.58;57.13;101194.41;5072038;28;20076;-83
2022/06/05 06:34:22;;;;;;;9.05;6.60;;;;;;;19.65;56.51;101189.47;5071997;28;20380;-84
2022/06/05 06:36:48;;;;;;;10.10;6.53;;;;;;;19.70;56.52;101189.50;5071879;28;20070;-84
2022/06/05 06:39:13;;;;;;;8.75;6.75;;;;;;;19.73;56.40;101183.44;5055117;28;20033;-84
2022/06/05 06:41:38;;;;;;;11.63;6.27;;;;;;;19.86;56.17;101184.09;5055192;28;20033;-84
2022/06/05 06:44:04;;;;;;;10.03;7.07;;;;;;;19.83;56.26;101170.84;5055341;28;20031;-84
2022/06/05 06:46:30;;;;;;;8.88;6.90;;;;;;;19.92;55.88;101169.25;5075305;28;20052;-84
2022/06/05 06:48:56;;;;;;;8.50;6.43;;;;;;;20.08;55.87;101165.44;5075241;28;20118;-84
2022/06/05 06:51:22;;;;;;;9.77;6.97;;;;;;;20.19;55.48;101162.69;5075513;28;20093;-85
2022/06/05 06:53:48;;;;;;;8.48;6.55;;;;;;;20.26;55.29;101166.84;5075050;28;20029;-84
2022/06/05 06:56:16;;;;;;;10.03;7.37;;;;;;;20.36;55.24;101167.94;5075023;28;20040;-83
2022/06/05 06:58:43;;;;;;;9.95;6.82;;;;;;;20.47;54.75;101177.88;5076317;28;20029;-84
2022/06/05 07:01:10;;;;;;;9.95;6.90;;;;;;;20.62;54.60;101174.31;5058679;28;20059;-84
2022/06/05 07:03:36;;;;;;;8.38;6.85;;;;;;;20.73;54.22;101164.13;5074945;28;20032;-83
2022/06/05 07:06:06;;;;;;;8.33;6.40;;;;;;;20.92;53.72;101169.91;5075043;28;20021;-84
2022/06/05 07:08:32;;;;;;;10.10;6.90;;;;;;;21.01;53.40;101162.75;5059730;28;20036;-83
2022/06/05 07:10:58;;;;;;;9.52;7.00;;;;;;;21.15;53.34;101155.53;5075428;28;20035;-83
2022/06/05 07:13:24;;;;;;;9.50;7.20;;;;;;;21.27;52.74;101148.91;5075056;28;20028;-83
2022/06/05 07:15:49;;;;;;;10.13;7.43;;;;;;;21.43;52.65;101149.69;5058392;28;20064;-83
2022/06/05 07:18:15;;;;;;;8.70;7.17;;;;;;;21.57;52.06;101149.94;5076665;28;20448;-83
2022/06/05 07:20:43;;;;;;;10.10;7.00;;;;;;;21.66;52.13;101148.25;5074797;28;20109;-83
2022/06/05 07:23:09;;;;;;;8.30;7.07;;;;;;;21.78;51.76;101151.50;5108910;28;20029;-83
2022/06/05 07:25:36;;;;;;;9.77;6.90;;;;;;;21.91;51.43;101150.06;5074516;28;20028;-83
2022/06/05 07:28:03;;;;;;;7.82;6.82;;;;;;;21.96;50.70;101143.69;5075905;28;20062;-83
2022/06/05 07:30:29;;;;;;;10.07;7.30;;;;;;;22.05;51.05;101142.78;5074373;28;20037;-84
2022/06/05 07:32:54;;;;;;;8.53;7.17;;;;;;;22.03;51.83;101138.66;5075784;28;20392;-84
2022/06/05 07:35:23;;;;;;;10.30;7.10;;;;;;;22.04;51.29;101129.25;5074585;28;20495;-84
2022/06/05 07:37:49;;;;;;;9.27;7.88;;;;;;;22.12;51.77;101127.84;5058529;28;20047;-83
2022/06/05 07:40:15;;;;;;;7.80;7.00;;;;;;;22.21;51.36;101140.75;5057878;28;20032;-84
2022/06/05 07:42:42;;;;;;;8.25;7.00;;;;;;;22.18;51.17;101130.25;5074520;28;20115;-84
2022/06/05 07:45:12;;;;;;;8.63;7.28;;;;;;;22.22;50.95;101127.78;5074459;28;20468;-83
2022/06/05 07:47:38;;;;;;;11.80;7.15;;;;;;;22.22;51.30;101112.00;5057585;28;20056;-84
2022/06/05 07:50:04;;;;;;;8.00;7.20;;;;;;;22.34;50.95;101122.72;5057726;28;20063;-83
2022/06/05 07:55:16;;;;;;;8.77;6.90;;;;;;;22.62;50.65;101113.91;5074251;28;20404;-84
2022/06/05 07:57:45;;;;;;;8.90;7.28;;;;;;;22.63;50.12;101104.50;5073497;28;20028;-84
2022/06/05 08:00:14;;;;;;;8.20;7.25;;;;;;;22.70;50.34;101110.53;5071159;28;20115;-84
2022/06/05 08:02:40;;;;;;;8.30;7.00;;;;;;;22.89;50.76;101107.84;5073371;28;20036;-84
2022/06/05 08:05:06;;;;;;;12.32;7.97;;;;;;;22.89;50.30;101102.31;5073749;28;20082;-84
2022/06/05 08:07:33;;;;;;;9.32;6.90;;;;;;;22.93;50.61;101100.63;5073744;28;20031;-84
2022/06/05 08:10:00;;;;;;;10.05;8.10;;;;;;;22.97;50.18;101098.09;5073998;28;20071;-85
2022/06/05 08:12:30;;;;;;;12.10;7.82;;;;;;;22.99;51.08;101095.84;5074019;28;20459;-84
2022/06/05 08:14:56;;;;;;;8.40;7.47;;;;;;;23.12;50.27;101103.50;5075068;28;20032;-85
2022/06/05 08:17:30;;;;;;;9.77;7.80;;;;;;;23.14;49.97;101087.41;5073669;28;20027;-84
2022/06/05 08:19:56;;;;;;;9.60;8.40;;;;;;;23.21;50.20;101089.81;5074076;28;20470;-84
2022/06/05 08:22:23;;;;;;;10.15;7.53;;;;;;;23.26;50.46;101081.47;5073617;28;20119;-84
2022/06/05 08:24:49;;;;;;;12.60;8.00;;;;;;;23.31;50.13;101081.38;5073664;28;20028;-85
2022/06/05 08:27:23;;;;;;;9.53;8.13;;;;;;;23.34;49.88;101075.28;5073235;28;20369;-85
2022/06/05 08:29:48;;;;;;;10.55;8.07;;;;;;;23.57;49.37;101073.56;5073824;28;20025;-85
2022/06/05 08:32:14;;;;;;;9.68;8.50;;;;;;;23.90;49.01;101072.88;5056990;28;20542;-85
2022/06/05 08:34:43;;;;;;;9.13;8.20;;;;;;;24.06;48.76;101077.03;5073509;28;20094;-84
2022/06/05 08:43:09;;;;;;;9.80;7.78;;;;;;;25.17;46.72;101071.78;5059688;28;20514;-85
2022/06/05 08:45:42;;;;;;;9.80;8.47;;;;;;;25.33;45.60;101080.63;5073187;28;20028;-84
2022/06/05 08:48:20;;;;;;;12.80;8.65;;;;;;;25.52;45.47;101080.50;5073133;28;20057;-85
2022/06/05 08:50:49;;;;;;;11.05;8.32;;;;;;;25.60;45.40;101081.75;5073374;28;20487;-85
2022/06/05 08:53:54;;;;;;;10.57;8.25;;;;;;;25.81;45.79;101087.66;5073194;28;20027;-85
2022/06/05 08:56:30;;;;;;;8.95;8.00;;;;;;;25.87;45.11;101091.94;5072319;28;20127;-85
2022/06/05 08:59:04;;;;;;;9.53;8.10;;;;;;;25.82;45.01;101094.03;5073114;28;20028;-85
2022/06/05 09:01:36;;;;;;;10.07;7.72;;;;;;;25.63;44.92;101081.13;5074429;28;20035;-84
2022/06/05 09:04:35;;;;;;;11.43;8.43;;;;;;;25.67;45.48;101089.63;5072610;28;20032;-85
2022/06/05 09:07:05;;;;;;;8.80;7.90;;;;;;;25.49;45.38;101094.19;5071808;28;20043;-85
2022/06/05 09:09:49;;;;;;;15.88;9.10;;;;;;;25.34;45.67;101090.59;5072880;28;20037;-84
2022/06/05 09:12:38;;;;;;;12.63;9.00;;;;;;;25.17;46.13;101085.66;5072875;28;20556;-84
2022/06/05 09:15:28;;;;;;;11.32;8.85;;;;;;;25.16;46.36;101085.97;5072686;28;20032;-84
2022/06/05 09:18:00;;;;;;;11.07;8.30;;;;;;;25.13;46.50;101079.06;5072911;28;20035;-82
2022/06/05 09:20:55;;;;;;;10.70;8.30;;;;;;;25.14;46.62;101083.50;5072587;28;20117;-82
2022/06/05 09:23:33;;;;;;;10.00;8.65;;;;;;;24.86;46.91;101082.63;5072465;28;20070;-83
2022/06/05 09:26:16;;;;;;;9.33;8.43;;;;;;;24.68;47.44;101078.81;5073527;28;20025;-83
2022/06/05 09:28:53;;;;;;;9.45;8.43;;;;;;;24.40;48.78;101075.13;5072730;28;20450;-83
2022/06/05 09:31:31;;;;;;;13.15;8.75;;;;;;;24.25;48.75;101082.56;5072633;28;20059;-82
2022/06/05 09:34:03;;;;;;;11.00;8.82;;;;;;;24.18;49.04;101084.91;5074134;28;20036;-82
2022/06/05 09:36:32;;;;;;;11.13;8.82;;;;;;;23.99;49.45;101077.44;5072342;28;20032;-83
2022/06/05 09:39:09;;;;;;;9.20;8.30;;;;;;;23.94;50.16;101073.94;5072360;28;20028;-83
2022/06/05 09:41:49;;;;;;;11.00;8.80;;;;;;;23.97;49.97;101073.31;5073423;28;20150;-83
2022/06/05 09:44:33;;;;;;;9.82;8.23;;;;;;;24.02;49.69;101073.25;5072907;28;20107;-83
2022/06/05 09:47:04;;;;;;;9.05;8.23;;;;;;;24.07;50.38;101066.81;5071984;28;20549;-83
2022/06/05 09:49:39;;;;;;;12.50;8.98;;;;;;;24.04;50.12;101050.78;5073672;28;20032;-83
2022/06/05 09:52:18;;;;;;;13.67;8.57;;;;;;;23.98;50.26;101050.84;5073876;28;20033;-83
2022/06/05 09:55:02;;;;;;;12.45;8.57;;;;;;;23.99;50.30;101048.88;5072298;28;20025;-82
2022/06/05 10:00:29;;;;;;;11.15;8.73;;;;;;;23.91;50.70;101028.25;5073846;28;20046;-83
2022/06/05 10:03:03;;;;;;;9.95;8.10;;;;;;;23.79;51.96;101036.16;5073792;28;20082;-83
2022/06/05 10:05:37;;;;;;;10.33;8.97;;;;;;;23.75;52.64;101035.13;5073179;28;20078;-83
2022/06/05 10:08:14;;;;;;;10.05;9.05;;;;;;;23.74;53.19;101027.91;5073796;28;20408;-83
2022/06/05 10:10:45;;;;;;;10.60;9.45;;;;;;;23.75;54.55;101027.63;5073458;28;20103;-83
2022/06/05 10:13:16;;;;;;;10.65;8.70;;;;;;;23.80;53.96;101030.31;5072210;28;20037;-83
2022/06/05 10:16:09;;;;;;;10.35;8.73;;;;;;;23.83;53.79;101031.69;5072000;28;20464;-83
2022/06/05 10:18:47;;;;;;;10.80;9.23;;;;;;;23.78;55.22;101023.44;5068664;28;20036;-82
2022/06/05 10:21:22;;;;;;;10.52;9.52;;;;;;;23.77;55.12;101019.00;5077330;28;20040;-83
2022/06/05 10:24:03;;;;;;;10.13;9.23;;;;;;;23.81;54.71;101029.22;5060509;28;20135;-82
2022/06/05 10:26:39;;;;;;;11.85;9.52;;;;;;;23.70;56.45;101024.94;5074985;28;20040;-83
2022/06/05 10:29:09;;;;;;;11.02;9.35;;;;;;;23.63;57.34;101030.84;5076287;28;20032;-83
2022/06/05 10:31:37;;;;;;;11.20;9.73;;;;;;;23.47;57.48;101021.09;5076977;28;20034;-83
2022/06/05 10:34:21;;;;;;;10.93;9.82;;;;;;;23.34;56.64;101019.06;5075749;28;20050;-83
2022/06/05 10:36:57;;;;;;;13.25;8.95;;;;;;;23.26;57.95;101024.16;5076943;28;20024;-83
2022/06/05 10:39:32;;;;;;;11.13;9.60;;;;;;;23.22;58.91;101017.59;5075855;28;20042;-83
2022/06/05 10:41:57;;;;;;;12.13;10.60;;;;;;;23.23;60.49;101027.50;5076860;28;20071;-83
2022/06/05 10:44:35;;;;;;;11.33;10.23;;;;;;;23.16;60.67;101021.50;5076829;28;20445;-83
2022/06/05 10:47:09;;;;;;;11.93;10.60;;;;;;;23.05;61.55;101026.34;5075122;28;20102;-83
2022/06/05 10:50:02;;;;;;;12.60;9.83;;;;;;;22.92;60.95;101024.28;5075391;28;20036;-83
2022/06/05 10:52:34;;;;;;;11.65;10.45;;;;;;;22.60;63.95;101023.81;5076491;28;20099;-83
2022/06/05 10:55:18;;;;;;;15.35;11.32;;;;;;;22.39;62.82;101022.34;5075163;28;20044;-83
2022/06/05 10:58:05;;;;;;;14.25;11.35;;;;;;;22.12;63.46;101022.84;5075349;28;20037;-83
2022/06/05 11:00:44;;;;;;;12.70;11.48;;;;;;;21.94;65.19;101022.44;5075380;28;20032;-83
2022/06/05 11:03:48;;;;;;;14.63;12.33;;;;;;;21.88;65.48;101018.06;5076581;28;20040;-83
2022/06/05 11:06:43;;;;;;;14.02;12.35;;;;;;;21.80;65.26;101026.94;5075345;28;20369;-85
2022/06/05 11:09:27;;;;;;;16.50;12.75;;;;;;;21.68;67.31;101024.53;5076114;28;20643;-85
2022/06/05 11:15:05;;;;;;;24.75;15.98;;;;;;;20.78;77.96;101024.34;5076498;28;20043;-83
2022/06/05 11:17:46;;;;;;;20.43;16.53;;;;;;;20.08;79.86;101027.72;5075183;28;20025;-83
2022/06/05 11:20:21;;;;;;;23.27;16.85;;;;;;;19.81;87.32;101022.44;5074977;28;20032;-83
2022/06/05 11:22:54;;;;;;;22.50;17.42;;;;;;;19.67;89.89;101018.56;5074681;28;20380;-83
2022/06/05 11:25:32;;;;;;;21.13;17.67;;;;;;;19.54;90.47;101017.16;5075592;28;20052;-83
2022/06/05 11:28:07;;;;;;;28.27;19.88;;;;;;;19.48;93.10;101002.56;5074592;28;20044;-83
2022/06/05 11:30:49;;;;;;;26.93;20.20;;;;;;;19.45;94.54;101003.91;5075183;28;20095;-82
2022/06/05 11:33:23;;;;;;;26.02;20.52;;;;;;;19.38;95.83;100992.34;5075836;28;20032;-83
2022/06/05 11:36:00;;;;;;;23.40;20.73;;;;;;;19.30;95.91;100995.63;5076008;28;20036;-82
2022/06/05 11:39:00;;;;;;;32.08;21.83;;;;;;;19.32;97.12;100998.09;5074740;28;20400;-82
2022/06/05 11:41:51;;;;;;;35.33;23.20;;;;;;;19.30;98.20;101000.31;5075683;28;20099;-82
2022/06/05 11:44:44;;;;;;;38.87;22.80;;;;;;;19.03;99.01;100999.38;5075829;28;20037;-81
2022/06/05 11:47:34;;;;;;;35.25;25.45;;;;;;;19.12;100.00;100991.44;5075370;28;20044;-81
2022/06/05 11:50:23;;;;;;;34.97;24.70;;;;;;;19.24;100.00;100991.22;5074635;28;20119;-81
2022/06/05 11:52:57;;;;;;;33.10;24.70;;;;;;;19.26;100.00;100989.81;5075782;28;20024;-82
2022/06/05 11:55:37;;;;;;;30.13;23.60;;;;;;;19.28;100.00;100992.31;5074990;28;20047;-82
2022/06/05 11:58:11;;;;;;;28.83;23.97;;;;;;;19.25;100.00;101003.84;5074207;28;20032;-81
2022/06/05 12:00:47;;;;;;;25.88;23.10;;;;;;;19.18;100.00;100997.81;5074006;28;20043;-82